Terminal Aerodrome Forecast
Issued by NWS

Home | Current Version | Previous Version | Text Only | Print | Product List | Glossary Off
Versions: 1 2 3 4 5 6 7 8 9 10 11 12 13 14 15

000
FTUS41 KCLE 010534
TAFFDY
TAF
KFDY 010534Z 0106/0206 26006KT P6SM SCT250
     FM010900 27006KT P6SM SCT025 BKN050
      TEMPO 0109/0113 BKN025
     FM011300 28008KT P6SM SCT045 BKN250
      TEMPO 0113/0116 BKN045
     FM011600 29010KT P6SM SCT250
     FM020200 35003KT P6SM SKC=

USA.gov is the U.S. government's official web portal to all federal, state and local government web resources and services.